createdAt,value
2018-11-07T00:04:59.845Z,48.95
2018-11-07T00:10:02.224Z,52.20
2018-11-07T00:15:05.565Z,52.38
2018-11-07T00:20:09.030Z,49.88
2018-11-07T00:25:11.907Z,51.83
2018-11-07T00:30:14.417Z,51.33
2018-11-07T00:35:16.871Z,54.13
2018-11-07T00:40:19.145Z,52.95
2018-11-07T00:45:21.650Z,57.23
2018-11-07T00:50:24.013Z,53.10
2018-11-07T00:55:26.448Z,52.58
2018-11-07T01:00:28.806Z,54.15
2018-11-07T01:05:31.282Z,54.33
2018-11-07T01:10:33.630Z,53.70
2018-11-07T01:15:36.005Z,56.30
2018-11-07T01:20:38.358Z,53.50
2018-11-07T01:25:40.750Z,51.15
2018-11-07T01:30:43.051Z,53.42
2018-11-07T01:35:45.338Z,58.70
2018-11-07T01:40:47.645Z,53.83
2018-11-07T01:45:50.001Z,61.02
2018-11-07T01:50:52.301Z,52.17
2018-11-07T01:55:54.680Z,59.33
2018-11-07T02:00:56.978Z,57.25
2018-11-07T02:05:59.277Z,63.35
2018-11-07T02:11:01.746Z,64.12
2018-11-07T02:16:04.480Z,59.23
2018-11-07T02:21:06.784Z,58.08
2018-11-07T02:26:09.286Z,66.17
2018-11-07T02:31:11.602Z,56.10
2018-11-07T02:36:13.925Z,61.95
2018-11-07T02:41:16.503Z,57.90
2018-11-07T02:46:18.847Z,61.97
2018-11-07T02:51:21.231Z,63.03
2018-11-07T02:56:23.704Z,68.75
2018-11-07T03:01:26.740Z,60.60
2018-11-07T03:06:29.150Z,58.58
2018-11-07T03:11:31.462Z,69.00
2018-11-07T03:16:33.863Z,58.42
2018-11-07T03:21:36.276Z,66.20
2018-11-07T03:26:38.649Z,67.40
2018-11-07T03:31:41.017Z,54.77
2018-11-07T03:36:43.478Z,59.60
2018-11-07T03:41:45.929Z,55.33
2018-11-07T03:46:48.227Z,56.05
2018-11-07T03:51:50.611Z,57.93
2018-11-07T03:56:52.954Z,61.68
2018-11-07T04:01:55.356Z,62.53
2018-11-07T04:06:57.734Z,60.52
2018-11-07T04:12:00.061Z,67.80
2018-11-07T04:17:02.368Z,61.35
2018-11-07T04:22:04.670Z,62.65
2018-11-07T04:27:07.034Z,61.25
2018-11-07T04:32:09.709Z,65.37
2018-11-07T04:37:12.051Z,66.10
2018-11-07T04:42:14.325Z,64.20
2018-11-07T04:47:16.627Z,69.67
2018-11-07T04:52:18.929Z,72.95
2018-11-07T04:57:21.274Z,65.05
2018-11-07T05:02:23.685Z,58.25
2018-11-07T05:07:25.990Z,61.88
2018-11-07T05:12:28.289Z,61.50
2018-11-07T05:17:30.550Z,62.98
2018-11-07T05:22:32.837Z,65.85
2018-11-07T05:27:35.174Z,56.15
2018-11-07T05:32:37.709Z,65.60
2018-11-07T05:37:39.976Z,60.33
2018-11-07T05:42:42.262Z,66.12
2018-11-07T05:47:44.528Z,57.63
2018-11-07T05:52:46.833Z,61.42
2018-11-07T05:57:49.315Z,67.03
2018-11-07T06:02:51.625Z,69.00
2018-11-07T06:07:53.953Z,63.65
2018-11-07T06:12:56.336Z,57.73
2018-11-07T06:17:58.843Z,55.63
2018-11-07T06:23:01.168Z,65.90
2018-11-07T06:28:03.481Z,62.17
2018-11-07T06:33:05.875Z,69.42
2018-11-07T06:38:08.265Z,66.77
2018-11-07T06:43:10.613Z,58.20
2018-11-07T06:48:12.958Z,61.20
2018-11-07T06:53:15.239Z,58.45
2018-11-07T06:58:17.661Z,64.60
2018-11-07T07:03:19.965Z,60.95
2018-11-07T07:08:22.238Z,56.28
2018-11-07T07:13:24.585Z,63.17
2018-11-07T07:18:26.899Z,58.15
2018-11-07T07:23:29.279Z,60.70
2018-11-07T07:28:31.946Z,57.00
2018-11-07T07:33:34.281Z,61.53
2018-11-07T07:38:36.549Z,62.98
2018-11-07T07:43:38.826Z,59.30
2018-11-07T07:48:41.210Z,58.78
2018-11-07T07:53:43.526Z,54.55
2018-11-07T07:58:45.902Z,54.25
2018-11-07T08:03:48.210Z,50.33
2018-11-07T08:08:50.596Z,52.05
2018-11-07T08:13:52.909Z,51.77
2018-11-07T08:18:55.192Z,50.10
2018-11-07T08:23:57.462Z,46.13
2018-11-07T08:28:59.832Z,46.15
2018-11-07T08:34:02.114Z,45.48
2018-11-07T08:39:07.489Z,39.88
2018-11-07T08:44:09.790Z,42.95
2018-11-07T08:49:12.138Z,39.40
2018-11-07T08:54:14.432Z,38.02
2018-11-07T08:59:16.769Z,39.92
2018-11-07T09:04:19.182Z,36.65
2018-11-07T09:09:21.475Z,36.33
2018-11-07T09:14:23.804Z,36.40
2018-11-07T09:19:26.438Z,34.60
2018-11-07T09:24:28.760Z,36.23
2018-11-07T09:29:31.039Z,33.25
2018-11-07T09:34:33.331Z,35.48
2018-11-07T09:39:35.666Z,33.45
2018-11-07T09:44:37.988Z,32.40
2018-11-07T09:49:40.286Z,32.83
2018-11-07T09:54:42.681Z,30.37
2018-11-07T09:59:44.983Z,30.62
2018-11-07T10:04:47.324Z,29.85
2018-11-07T10:09:49.722Z,26.48
2018-11-07T10:14:52.198Z,28.40
2018-11-07T10:19:54.506Z,27.52
2018-11-07T10:24:56.857Z,25.15
2018-11-07T10:29:59.570Z,26.82
2018-11-07T10:35:01.694Z,26.48
2018-11-07T10:40:07.746Z,26.85
2018-11-07T10:45:10.734Z,23.73
2018-11-07T10:50:14.044Z,22.32
2018-11-07T10:55:16.969Z,24.35
2018-11-07T11:00:24.894Z,27.27
2018-11-07T11:05:27.194Z,25.70
2018-11-07T11:10:29.473Z,20.92
2018-11-07T11:15:31.806Z,20.57
2018-11-07T11:20:34.202Z,21.68
2018-11-07T11:25:36.481Z,20.25
2018-11-07T11:30:38.867Z,19.10
2018-11-07T11:35:41.162Z,18.55
2018-11-07T11:40:43.926Z,18.50
2018-11-07T11:45:46.505Z,18.30
2018-11-07T11:50:48.816Z,19.62
2018-11-07T11:55:51.123Z,15.48
2018-11-07T12:00:53.481Z,14.43
2018-11-07T12:05:55.820Z,15.53
2018-11-07T12:10:58.163Z,12.28
2018-11-07T12:16:00.417Z,12.70
2018-11-07T12:21:02.755Z,11.43
2018-11-07T12:26:05.089Z,14.03
2018-11-07T12:31:07.558Z,15.65
2018-11-07T12:36:10.164Z,15.40
2018-11-07T12:41:12.488Z,13.05
2018-11-07T12:46:14.791Z,12.23
2018-11-07T12:51:17.092Z,11.15
2018-11-07T12:56:19.745Z,10.32
2018-11-07T13:01:22.203Z,10.82
2018-11-07T13:06:24.499Z,10.38
2018-11-07T13:11:26.804Z,8.90
2018-11-07T13:16:29.167Z,8.68
2018-11-07T13:21:31.414Z,6.75
2018-11-07T13:26:33.846Z,9.93
2018-11-07T13:31:36.202Z,7.60
2018-11-07T13:36:38.890Z,9.98
2018-11-07T13:41:41.637Z,7.47
2018-11-07T13:46:43.909Z,7.67
2018-11-07T13:51:46.270Z,7.28
2018-11-07T13:56:48.568Z,10.72
2018-11-07T14:01:50.944Z,7.58
2018-11-07T14:06:53.246Z,8.98
2018-11-07T14:11:55.609Z,9.40
2018-11-07T14:16:57.901Z,10.13
2018-11-07T14:22:00.199Z,9.80
2018-11-07T14:27:03.330Z,10.65
2018-11-07T14:32:05.877Z,11.22
2018-11-07T14:37:08.157Z,15.38
2018-11-07T14:42:10.492Z,18.45
2018-11-07T14:47:13.081Z,23.52
2018-11-07T14:52:15.363Z,21.37
2018-11-07T14:57:17.630Z,24.07
2018-11-07T15:02:20.113Z,25.05
2018-11-07T15:07:22.397Z,24.47
2018-11-07T15:12:24.680Z,23.77
2018-11-07T15:17:27.030Z,24.05
2018-11-07T15:22:29.313Z,27.67
2018-11-07T15:27:31.689Z,33.15
2018-11-07T15:32:34.189Z,28.62
2018-11-07T15:37:36.884Z,31.82
2018-11-07T15:42:39.644Z,33.02
2018-11-07T15:47:43.029Z,33.23
2018-11-07T15:52:46.344Z,34.50
2018-11-07T15:57:48.693Z,32.60
2018-11-07T16:02:51.249Z,33.38
2018-11-07T16:07:54.353Z,36.40
2018-11-07T16:12:56.673Z,37.63
2018-11-07T16:17:59.072Z,36.88
2018-11-07T16:23:01.390Z,36.73
2018-11-07T16:28:03.774Z,38.55
2018-11-07T16:33:06.100Z,35.83
2018-11-07T16:38:08.406Z,41.33
2018-11-07T16:43:10.790Z,37.28
2018-11-07T16:48:13.089Z,34.98
2018-11-07T16:53:15.369Z,34.83
2018-11-07T16:58:17.677Z,38.73
2018-11-07T17:03:20.076Z,38.53
2018-11-07T17:08:22.546Z,37.70
2018-11-07T17:13:25.025Z,38.65
2018-11-07T17:18:27.643Z,41.77
2018-11-07T17:23:30.030Z,37.63
2018-11-07T17:28:32.333Z,42.33
2018-11-07T17:33:34.784Z,41.23
2018-11-07T17:38:37.151Z,42.90
2018-11-07T17:43:39.523Z,39.98
2018-11-07T17:48:41.944Z,40.75
2018-11-07T17:53:44.239Z,39.03
2018-11-07T17:58:46.549Z,42.50
2018-11-07T18:03:48.959Z,42.35
2018-11-07T18:08:51.252Z,45.10
2018-11-07T18:13:53.625Z,42.38
2018-11-07T18:18:55.969Z,46.23
2018-11-07T18:33:30.125Z,43.50
2018-11-07T18:38:32.535Z,45.78
2018-11-07T18:43:34.793Z,45.50
2018-11-07T18:48:37.144Z,45.45
2018-11-07T18:53:39.533Z,43.92
2018-11-07T18:58:42.400Z,46.08
2018-11-07T19:03:44.690Z,46.50
2018-11-07T19:08:47.089Z,47.15
2018-11-07T19:13:49.407Z,44.80
2018-11-07T19:18:51.753Z,45.98
2018-11-07T19:23:54.331Z,48.52
2018-11-07T19:28:56.567Z,42.53
2018-11-07T19:33:58.925Z,43.78
2018-11-07T19:39:01.311Z,50.88
2018-11-07T19:44:03.652Z,54.25
2018-11-07T19:49:06.310Z,56.70
2018-11-07T19:54:08.558Z,52.53
2018-11-07T19:59:10.873Z,51.00
2018-11-07T20:04:13.173Z,53.30
2018-11-07T20:09:15.550Z,58.68
2018-11-07T20:14:17.831Z,58.55
2018-11-07T20:19:20.135Z,64.10
2018-11-07T20:24:22.397Z,62.90
2018-11-07T20:29:24.806Z,62.75
2018-11-07T20:34:27.093Z,61.40
2018-11-07T20:39:29.485Z,55.73
2018-11-07T20:44:31.745Z,57.35
2018-11-07T20:49:34.015Z,56.25
2018-11-07T20:54:36.385Z,55.23
2018-11-07T20:59:38.681Z,57.20
2018-11-07T21:04:40.953Z,59.88
2018-11-07T21:09:43.263Z,62.03
2018-11-07T21:14:45.582Z,58.35
2018-11-07T21:19:47.841Z,57.23
2018-11-07T21:24:50.535Z,60.47
2018-11-07T21:29:52.883Z,59.08
2018-11-07T21:34:55.535Z,56.83
2018-11-07T21:39:57.783Z,54.93
2018-11-07T21:45:00.103Z,51.13
2018-11-07T21:50:02.373Z,52.10
2018-11-07T21:55:05.208Z,50.85
2018-11-07T22:00:09.542Z,52.43
2018-11-07T22:05:12.444Z,55.57
2018-11-07T22:10:16.066Z,51.17
2018-11-07T22:15:18.433Z,54.42
2018-11-07T22:20:21.462Z,55.20
2018-11-07T22:25:23.722Z,54.00
2018-11-07T22:30:25.965Z,55.73
2018-11-07T22:35:28.231Z,54.80
2018-11-07T22:40:30.509Z,61.73
2018-11-07T22:45:32.894Z,56.63
2018-11-07T22:50:35.187Z,54.20
2018-11-07T22:55:37.562Z,66.80
2018-11-07T23:00:45.613Z,55.77
2018-11-07T23:05:47.932Z,63.20
2018-11-07T23:10:50.255Z,63.43
2018-11-07T23:15:52.510Z,62.27
2018-11-07T23:20:54.830Z,61.43
2018-11-07T23:25:57.108Z,54.67
2018-11-07T23:30:59.408Z,59.63
2018-11-07T23:36:01.705Z,54.03
2018-11-07T23:41:04.506Z,62.07
2018-11-07T23:46:06.766Z,61.57
2018-11-07T23:51:09.063Z,67.70
2018-11-07T23:56:11.339Z,60.37
